CheckWX is a tool to help pilots better visualize weather data.  It is not intended as a substitute for an official pre-flight weather briefing.

05:19:13 UTC

EGNH METAR
Blackpool International Airport
Blackpool, United Kingdom
Current

8 hours ago

EGNH 192050Z 15011KT 6000 RA BKN016 07/06 Q1013
Observed
Feb-19 @ 20:50 UTC
Wind
  • 150° at 11 KTS
Visibility
6,003 meters
Flight Rules
MVFR
Conditions
Rain
Cloud Levels
  • Broken at 1,600' AGL
Temperature
C / 45°F
Dewpoint
C / 43°F
Humidity
93%
Altimeter
29.91" Hg
Pressure
1012.92 hPa
Previous

9 hours ago

EGNH 192020Z 15011KT 6000 -RA BKN016 07/06 Q1013
Observed
Feb-19 @ 20:20 UTC
Wind
  • 150° at 11 KTS
Visibility
6,003 meters
Flight Rules
MVFR
Conditions
Light Rain
Cloud Levels
  • Broken at 1,600' AGL
Temperature
C / 45°F
Dewpoint
C / 43°F
Humidity
93%
Altimeter
29.91" Hg
Pressure
1012.92 hPa
Previous

9 hours ago

EGNH 191950Z 16011KT 9999 -RA BKN017 BKN044 08/06 Q1013
Observed
Feb-19 @ 19:50 UTC
Wind
  • 160° at 11 KTS
Visibility
10,000+ meters
Flight Rules
MVFR
Conditions
Light Rain
Cloud Levels
  • Broken at 1,700' AGL
  • Broken at 4,400' AGL
Temperature
C / 46°F
Dewpoint
C / 43°F
Humidity
87%
Altimeter
29.91" Hg
Pressure
1012.92 hPa